ARG1216 SABE-SBFL
Flight info
| Callsign | ARG1216 |
|---|---|
| Flight time | 1h 33m |
| Altitude | 37000 |
| Route | DORVO8 DORVO UN857 ITBEB UM540 DADMO |
| Aircraft | B738/M-SDE2E3FGHIRWXY/LB1 |
Departure
| Time | 2026-04-26 18:15 |
|---|---|
| Airport | Aeroparque Jorge Newbery (SABE) |
Arrival
| Time | 2026-04-26 19:48 |
|---|---|
| Airport | Hercílio Luz International Airport (SBFL) |
| Time | Latitude | Longitude | Altitude | Speed | Heading |
|---|---|---|---|---|---|
| 2026-04-26 17:57 | -34.55800 | -58.41248 | 26 ft | 0 kts | 35° |
| 2026-04-26 18:07 | -34.55801 | -58.41249 | 26 ft | 2 kts | 35° |
| 2026-04-26 18:07 | -34.55815 | -58.41260 | 28 ft | 2 kts | 35° |
| 2026-04-26 18:07 | -34.55828 | -58.41272 | 25 ft | 2 kts | 35° |
| 2026-04-26 18:07 | -34.55833 | -58.41275 | 26 ft | 2 kts | 35° |
| 2026-04-26 18:08 | -34.55844 | -58.41285 | 23 ft | 0 kts | 35° |
| 2026-04-26 18:10 | -34.55842 | -58.41280 | 23 ft | 1 kts | 58° |
| 2026-04-26 18:10 | -34.55848 | -58.41264 | 33 ft | 1 kts | 125° |
| 2026-04-26 18:10 | -34.55850 | -58.41261 | 31 ft | 0 kts | 125° |
| 2026-04-26 18:11 | -34.55877 | -58.41217 | 24 ft | 9 kts | 127° |
| 2026-04-26 18:11 | -34.55921 | -58.41150 | 25 ft | 6 kts | 128° |
| 2026-04-26 18:11 | -34.55955 | -58.41097 | 27 ft | 9 kts | 128° |
| 2026-04-26 18:12 | -34.55972 | -58.41075 | 25 ft | 2 kts | 139° |
| 2026-04-26 18:12 | -34.55989 | -58.41060 | 24 ft | 5 kts | 145° |
| 2026-04-26 18:12 | -34.56035 | -58.41053 | 24 ft | 9 kts | 192° |
| 2026-04-26 18:12 | -34.56098 | -58.41019 | 24 ft | 13 kts | 127° |
| 2026-04-26 18:13 | -34.56153 | -58.40934 | 26 ft | 10 kts | 128° |
| 2026-04-26 18:13 | -34.56191 | -58.40878 | 24 ft | 10 kts | 129° |
| 2026-04-26 18:13 | -34.56240 | -58.40804 | 23 ft | 12 kts | 128° |
| 2026-04-26 18:13 | -34.56276 | -58.40750 | 25 ft | 12 kts | 131° |
| 2026-04-26 18:14 | -34.56361 | -58.40661 | 22 ft | 13 kts | 142° |
| 2026-04-26 18:14 | -34.56399 | -58.40686 | 22 ft | 8 kts | 279° |
| 2026-04-26 18:14 | -34.56360 | -58.40789 | 23 ft | 30 kts | 303° |
| 2026-04-26 18:14 | -34.56087 | -58.41278 | 24 ft | 109 kts | 304° |
| 2026-04-26 18:15 | -34.55518 | -58.42254 | 108 ft | 166 kts | 302° |
| 2026-04-26 18:15 | -34.54851 | -58.43403 | 1088 ft | 160 kts | 296° |
| 2026-04-26 18:15 | -34.54024 | -58.44314 | 2152 ft | 177 kts | 327° |
| 2026-04-26 18:15 | -34.52667 | -58.44551 | 2584 ft | 223 kts | 358° |
| 2026-04-26 18:16 | -34.51114 | -58.43794 | 2852 ft | 263 kts | 37° |
| 2026-04-26 18:16 | -34.49960 | -58.39612 | 4202 ft | 272 kts | 103° |
| 2026-04-26 18:16 | -34.50421 | -58.37362 | 4775 ft | 284 kts | 111° |
| 2026-04-26 18:17 | -34.51014 | -58.35047 | 5445 ft | 294 kts | 112° |
| 2026-04-26 18:17 | -34.51627 | -58.32659 | 6343 ft | 298 kts | 112° |
| 2026-04-26 18:17 | -34.52231 | -58.30237 | 7192 ft | 303 kts | 111° |
| 2026-04-26 18:17 | -34.52835 | -58.27763 | 7787 ft | 306 kts | 111° |
| 2026-04-26 18:18 | -34.53445 | -58.25245 | 8517 ft | 315 kts | 111° |
| 2026-04-26 18:18 | -34.54070 | -58.22681 | 9268 ft | 318 kts | 111° |
| 2026-04-26 18:18 | -34.54719 | -58.20080 | 10014 ft | 325 kts | 112° |
| 2026-04-26 18:18 | -34.55400 | -58.17382 | 10368 ft | 347 kts | 112° |
| 2026-04-26 18:19 | -34.56119 | -58.14538 | 10736 ft | 365 kts | 111° |
| 2026-04-26 18:19 | -34.56827 | -58.11715 | 11330 ft | 373 kts | 111° |
| 2026-04-26 18:19 | -34.57583 | -58.08679 | 12066 ft | 379 kts | 111° |
| 2026-04-26 18:19 | -34.58353 | -58.05580 | 12748 ft | 387 kts | 111° |
| 2026-04-26 18:20 | -34.59135 | -58.02416 | 13447 ft | 395 kts | 111° |
| 2026-04-26 18:20 | -34.59917 | -57.99260 | 14046 ft | 402 kts | 111° |
| 2026-04-26 18:20 | -34.60734 | -57.95969 | 14582 ft | 412 kts | 111° |
| 2026-04-26 18:20 | -34.61285 | -57.93744 | 14930 ft | 418 kts | 111° |
| 2026-04-26 18:21 | -34.62421 | -57.89159 | 15652 ft | 430 kts | 111° |
| 2026-04-26 18:21 | -34.63287 | -57.85650 | 16203 ft | 438 kts | 111° |
| 2026-04-26 18:21 | -34.64169 | -57.82073 | 16748 ft | 446 kts | 111° |
| 2026-04-26 18:21 | -34.65067 | -57.78423 | 17291 ft | 455 kts | 111° |
| 2026-04-26 18:22 | -34.65968 | -57.74759 | 17817 ft | 463 kts | 111° |
| 2026-04-26 18:22 | -34.66896 | -57.70977 | 18309 ft | 471 kts | 111° |
| 2026-04-26 18:22 | -34.67835 | -57.67138 | 18847 ft | 476 kts | 111° |
| 2026-04-26 18:22 | -34.68779 | -57.63270 | 19491 ft | 478 kts | 111° |
| 2026-04-26 18:23 | -34.69727 | -57.59389 | 20104 ft | 480 kts | 111° |
| 2026-04-26 18:23 | -34.70318 | -57.55358 | 20618 ft | 492 kts | 91° |
| 2026-04-26 18:23 | -34.69909 | -57.51244 | 21166 ft | 491 kts | 70° |
| 2026-04-26 18:23 | -34.68649 | -57.47442 | 21740 ft | 479 kts | 50° |
| 2026-04-26 18:24 | -34.66705 | -57.44232 | 22300 ft | 469 kts | 40° |
| 2026-04-26 18:24 | -34.64592 | -57.41204 | 22836 ft | 471 kts | 38° |
| 2026-04-26 18:24 | -34.62437 | -57.38191 | 23339 ft | 474 kts | 38° |
| 2026-04-26 18:24 | -34.60263 | -57.35150 | 23782 ft | 478 kts | 39° |
| 2026-04-26 18:25 | -34.58087 | -57.32072 | 24261 ft | 480 kts | 39° |
| 2026-04-26 18:25 | -34.55949 | -57.29012 | 24719 ft | 482 kts | 39° |
| 2026-04-26 18:25 | -34.53785 | -57.25894 | 25192 ft | 484 kts | 40° |
| 2026-04-26 18:25 | -34.51617 | -57.22759 | 25642 ft | 486 kts | 40° |
| 2026-04-26 18:26 | -34.49439 | -57.19607 | 26083 ft | 488 kts | 40° |
| 2026-04-26 18:26 | -34.47435 | -57.16710 | 26475 ft | 490 kts | 40° |
| 2026-04-26 18:26 | -34.45242 | -57.13542 | 26902 ft | 492 kts | 40° |
| 2026-04-26 18:26 | -34.43039 | -57.10365 | 27328 ft | 493 kts | 40° |
| 2026-04-26 18:27 | -34.40826 | -57.07179 | 27752 ft | 495 kts | 40° |
| 2026-04-26 18:27 | -34.38601 | -57.03979 | 28164 ft | 497 kts | 40° |
| 2026-04-26 18:27 | -34.36372 | -57.00775 | 28573 ft | 498 kts | 40° |
| 2026-04-26 18:27 | -34.34133 | -56.97561 | 28952 ft | 500 kts | 40° |
| 2026-04-26 18:28 | -34.31889 | -56.94341 | 29342 ft | 502 kts | 40° |
| 2026-04-26 18:28 | -34.29631 | -56.91103 | 29698 ft | 504 kts | 40° |
| 2026-04-26 18:28 | -34.27365 | -56.87858 | 30033 ft | 506 kts | 40° |
| 2026-04-26 18:28 | -34.25120 | -56.84648 | 30318 ft | 507 kts | 40° |
| 2026-04-26 18:29 | -34.22833 | -56.81388 | 30608 ft | 509 kts | 40° |
| 2026-04-26 18:29 | -34.20541 | -56.78126 | 30881 ft | 510 kts | 39° |
| 2026-04-26 18:29 | -34.18234 | -56.74844 | 31151 ft | 512 kts | 39° |
| 2026-04-26 18:29 | -34.15925 | -56.71562 | 31410 ft | 514 kts | 39° |
| 2026-04-26 18:30 | -34.13604 | -56.68265 | 31675 ft | 516 kts | 39° |
| 2026-04-26 18:30 | -34.11283 | -56.64967 | 31991 ft | 516 kts | 39° |
| 2026-04-26 18:30 | -34.08959 | -56.61666 | 32358 ft | 514 kts | 39° |
| 2026-04-26 18:30 | -34.06641 | -56.58376 | 32729 ft | 513 kts | 39° |
| 2026-04-26 18:31 | -34.04331 | -56.55102 | 33043 ft | 513 kts | 39° |
| 2026-04-26 18:31 | -34.02016 | -56.51827 | 33311 ft | 514 kts | 39° |
| 2026-04-26 18:31 | -33.99690 | -56.48543 | 33573 ft | 515 kts | 39° |
| 2026-04-26 18:31 | -33.97395 | -56.45302 | 33872 ft | 515 kts | 39° |
| 2026-04-26 18:32 | -33.95064 | -56.42011 | 34119 ft | 515 kts | 39° |
| 2026-04-26 18:32 | -33.92739 | -56.38732 | 34346 ft | 515 kts | 39° |
| 2026-04-26 18:32 | -33.90407 | -56.35446 | 34555 ft | 516 kts | 39° |
| 2026-04-26 18:32 | -33.88072 | -56.32162 | 34797 ft | 515 kts | 39° |
| 2026-04-26 18:33 | -33.85729 | -56.28901 | 35040 ft | 514 kts | 38° |
| 2026-04-26 18:33 | -33.83378 | -56.25656 | 35266 ft | 514 kts | 38° |
| 2026-04-26 18:33 | -33.81024 | -56.22409 | 35490 ft | 515 kts | 38° |
| 2026-04-26 18:33 | -33.78675 | -56.19163 | 35737 ft | 514 kts | 38° |
| 2026-04-26 18:34 | -33.76336 | -56.15904 | 35984 ft | 514 kts | 38° |
| 2026-04-26 18:34 | -33.74008 | -56.12645 | 36246 ft | 513 kts | 38° |
| 2026-04-26 18:34 | -33.71719 | -56.09435 | 36474 ft | 512 kts | 38° |
| 2026-04-26 18:34 | -33.69394 | -56.06177 | 36674 ft | 513 kts | 38° |
| 2026-04-26 18:35 | -33.67072 | -56.02929 | 36836 ft | 514 kts | 38° |
| 2026-04-26 18:35 | -33.64731 | -55.99665 | 36829 ft | 517 kts | 38° |
| 2026-04-26 18:35 | -33.60037 | -55.93124 | 36824 ft | 516 kts | 38° |
| 2026-04-26 18:36 | -33.55385 | -55.86643 | 36831 ft | 510 kts | 38° |
| 2026-04-26 18:36 | -33.50755 | -55.80214 | 36831 ft | 508 kts | 38° |
| 2026-04-26 18:37 | -33.46137 | -55.73817 | 36830 ft | 506 kts | 38° |
| 2026-04-26 18:37 | -33.41536 | -55.67457 | 36831 ft | 505 kts | 37° |
| 2026-04-26 18:38 | -33.36956 | -55.61137 | 36839 ft | 505 kts | 37° |
| 2026-04-26 18:38 | -33.32336 | -55.54772 | 36841 ft | 507 kts | 37° |
| 2026-04-26 18:39 | -33.27705 | -55.48402 | 36839 ft | 508 kts | 37° |
| 2026-04-26 18:39 | -33.23058 | -55.42020 | 36837 ft | 509 kts | 37° |
| 2026-04-26 18:40 | -33.18394 | -55.35626 | 36837 ft | 511 kts | 37° |
| 2026-04-26 18:40 | -33.13719 | -55.29226 | 36839 ft | 512 kts | 37° |
| 2026-04-26 18:41 | -33.09061 | -55.22862 | 36832 ft | 513 kts | 37° |
| 2026-04-26 18:41 | -33.04356 | -55.16443 | 36831 ft | 512 kts | 37° |
| 2026-04-26 18:42 | -32.99665 | -55.10055 | 36820 ft | 512 kts | 37° |
| 2026-04-26 18:42 | -32.94976 | -55.03682 | 36820 ft | 511 kts | 37° |
| 2026-04-26 18:43 | -32.90316 | -54.97358 | 36821 ft | 510 kts | 37° |
| 2026-04-26 18:43 | -32.85638 | -54.91022 | 36820 ft | 509 kts | 36° |
| 2026-04-26 18:44 | -32.80962 | -54.84701 | 36815 ft | 508 kts | 36° |
| 2026-04-26 18:44 | -32.76293 | -54.78400 | 36821 ft | 507 kts | 36° |
| 2026-04-26 18:45 | -32.71627 | -54.72113 | 36820 ft | 506 kts | 36° |
| 2026-04-26 18:45 | -32.66996 | -54.65886 | 36817 ft | 506 kts | 36° |
| 2026-04-26 18:46 | -32.62328 | -54.59619 | 36813 ft | 506 kts | 36° |
| 2026-04-26 18:46 | -32.57667 | -54.53371 | 36819 ft | 506 kts | 36° |
| 2026-04-26 18:47 | -32.52998 | -54.47124 | 36811 ft | 506 kts | 35° |
| 2026-04-26 18:47 | -32.48325 | -54.40881 | 36806 ft | 507 kts | 35° |
| 2026-04-26 18:48 | -32.43645 | -54.34638 | 36797 ft | 507 kts | 35° |
| 2026-04-26 18:48 | -32.38993 | -54.28442 | 36795 ft | 507 kts | 35° |
| 2026-04-26 18:49 | -32.34296 | -54.22197 | 36796 ft | 507 kts | 35° |
| 2026-04-26 18:49 | -32.29620 | -54.15907 | 36795 ft | 509 kts | 36° |
| 2026-04-26 18:50 | -32.24999 | -54.09634 | 36801 ft | 509 kts | 36° |
| 2026-04-26 18:50 | -32.20343 | -54.03335 | 36800 ft | 509 kts | 35° |
| 2026-04-26 18:51 | -32.15674 | -53.97039 | 36812 ft | 509 kts | 35° |
| 2026-04-26 18:51 | -32.10998 | -53.90748 | 36818 ft | 509 kts | 35° |
| 2026-04-26 18:52 | -32.06329 | -53.84475 | 36815 ft | 509 kts | 34° |
| 2026-04-26 18:52 | -32.01681 | -53.78243 | 36815 ft | 509 kts | 34° |
| 2026-04-26 18:53 | -31.97008 | -53.71985 | 36820 ft | 508 kts | 34° |
| 2026-04-26 18:53 | -31.92335 | -53.65736 | 36824 ft | 508 kts | 34° |
| 2026-04-26 18:54 | -31.87660 | -53.59494 | 36820 ft | 507 kts | 34° |
| 2026-04-26 18:54 | -31.82996 | -53.53276 | 36833 ft | 506 kts | 34° |
| 2026-04-26 18:55 | -31.78365 | -53.47113 | 36835 ft | 505 kts | 34° |
| 2026-04-26 18:55 | -31.73704 | -53.40919 | 36829 ft | 505 kts | 34° |
| 2026-04-26 18:56 | -31.69047 | -53.34745 | 36834 ft | 505 kts | 33° |
| 2026-04-26 18:56 | -31.64382 | -53.28568 | 36832 ft | 505 kts | 33° |
| 2026-04-26 18:57 | -31.61264 | -53.24445 | 36824 ft | 505 kts | 33° |
| 2026-04-26 18:57 | -31.55051 | -53.16241 | 36832 ft | 505 kts | 33° |
| 2026-04-26 18:58 | -31.50402 | -53.10116 | 36830 ft | 505 kts | 33° |
| 2026-04-26 18:58 | -31.46484 | -53.04960 | 36839 ft | 506 kts | 33° |
| 2026-04-26 18:59 | -31.41822 | -52.98834 | 36834 ft | 506 kts | 33° |
| 2026-04-26 18:59 | -31.37134 | -52.92682 | 36826 ft | 506 kts | 33° |
| 2026-04-26 19:00 | -31.32441 | -52.86534 | 36828 ft | 506 kts | 33° |
| 2026-04-26 19:00 | -31.27754 | -52.80384 | 36824 ft | 507 kts | 33° |
| 2026-04-26 19:01 | -31.23066 | -52.74220 | 36834 ft | 507 kts | 33° |
| 2026-04-26 19:01 | -31.18395 | -52.68125 | 36833 ft | 506 kts | 33° |
| 2026-04-26 19:02 | -31.13681 | -52.62003 | 36833 ft | 506 kts | 33° |
| 2026-04-26 19:02 | -31.09764 | -52.56919 | 36828 ft | 506 kts | 33° |
| 2026-04-26 19:03 | -31.04260 | -52.49782 | 36833 ft | 505 kts | 33° |
| 2026-04-26 19:03 | -30.99558 | -52.43694 | 36834 ft | 505 kts | 33° |
| 2026-04-26 19:04 | -30.94878 | -52.37643 | 36834 ft | 505 kts | 33° |
| 2026-04-26 19:04 | -30.90173 | -52.31570 | 36834 ft | 505 kts | 33° |
| 2026-04-26 19:05 | -30.83046 | -52.22600 | 36832 ft | 500 kts | 31° |
| 2026-04-26 19:06 | -30.78290 | -52.16700 | 36829 ft | 499 kts | 32° |
| 2026-04-26 19:06 | -30.73584 | -52.10839 | 36840 ft | 498 kts | 32° |
| 2026-04-26 19:07 | -30.68846 | -52.04943 | 36857 ft | 499 kts | 32° |
| 2026-04-26 19:07 | -30.64100 | -51.99046 | 36854 ft | 499 kts | 32° |
| 2026-04-26 19:08 | -30.59340 | -51.93133 | 36838 ft | 500 kts | 32° |
| 2026-04-26 19:08 | -30.54608 | -51.87264 | 36837 ft | 500 kts | 31° |
| 2026-04-26 19:09 | -30.49863 | -51.81385 | 36845 ft | 499 kts | 32° |
| 2026-04-26 19:09 | -30.45118 | -51.75519 | 36853 ft | 499 kts | 32° |
| 2026-04-26 19:10 | -30.40430 | -51.69542 | 36851 ft | 503 kts | 34° |
| 2026-04-26 19:10 | -30.35806 | -51.63456 | 36852 ft | 503 kts | 34° |
| 2026-04-26 19:11 | -30.31203 | -51.57414 | 36839 ft | 502 kts | 34° |
| 2026-04-26 19:11 | -30.26570 | -51.51379 | 36826 ft | 501 kts | 34° |
| 2026-04-26 19:12 | -30.21939 | -51.45369 | 36843 ft | 500 kts | 34° |
| 2026-04-26 19:12 | -30.17304 | -51.39366 | 36836 ft | 499 kts | 34° |
| 2026-04-26 19:13 | -30.12678 | -51.33381 | 36832 ft | 499 kts | 34° |
| 2026-04-26 19:13 | -30.08052 | -51.27403 | 36823 ft | 499 kts | 34° |
| 2026-04-26 19:14 | -30.03454 | -51.21469 | 36820 ft | 499 kts | 34° |
| 2026-04-26 19:14 | -29.98825 | -51.15505 | 36819 ft | 498 kts | 34° |
| 2026-04-26 19:15 | -29.94192 | -51.09563 | 36822 ft | 498 kts | 34° |
| 2026-04-26 19:15 | -29.89556 | -51.03630 | 36825 ft | 498 kts | 34° |
| 2026-04-26 19:16 | -29.84920 | -50.97703 | 36836 ft | 498 kts | 34° |
| 2026-04-26 19:16 | -29.80283 | -50.91781 | 36842 ft | 497 kts | 34° |
| 2026-04-26 19:17 | -29.75641 | -50.85861 | 36862 ft | 498 kts | 34° |
| 2026-04-26 19:17 | -29.71029 | -50.79988 | 36873 ft | 498 kts | 34° |
| 2026-04-26 19:18 | -29.66387 | -50.74085 | 36858 ft | 497 kts | 34° |
| 2026-04-26 19:18 | -29.61750 | -50.68194 | 36867 ft | 496 kts | 34° |
| 2026-04-26 19:19 | -29.57119 | -50.62321 | 36867 ft | 495 kts | 34° |
| 2026-04-26 19:19 | -29.52459 | -50.56534 | 36867 ft | 486 kts | 29° |
| 2026-04-26 19:19 | -29.49918 | -50.54091 | 36877 ft | 470 kts | 22° |
| 2026-04-26 19:20 | -29.47344 | -50.51873 | 36880 ft | 466 kts | 21° |
| 2026-04-26 19:20 | -29.42074 | -50.47470 | 36308 ft | 468 kts | 21° |
| 2026-04-26 19:20 | -29.39462 | -50.45271 | 35913 ft | 464 kts | 21° |
| 2026-04-26 19:21 | -29.36875 | -50.43074 | 35512 ft | 461 kts | 21° |
| 2026-04-26 19:21 | -29.34316 | -50.40890 | 35109 ft | 458 kts | 21° |
| 2026-04-26 19:21 | -29.31771 | -50.38711 | 34705 ft | 455 kts | 21° |
| 2026-04-26 19:21 | -29.29244 | -50.36547 | 34316 ft | 452 kts | 21° |
| 2026-04-26 19:22 | -29.26757 | -50.34417 | 33907 ft | 450 kts | 21° |
| 2026-04-26 19:22 | -29.24258 | -50.32279 | 33467 ft | 447 kts | 21° |
| 2026-04-26 19:22 | -29.21773 | -50.30154 | 33053 ft | 444 kts | 21° |
| 2026-04-26 19:22 | -29.19306 | -50.28051 | 32653 ft | 440 kts | 21° |
| 2026-04-26 19:23 | -29.16857 | -50.25966 | 32260 ft | 437 kts | 21° |
| 2026-04-26 19:23 | -29.14422 | -50.23888 | 31873 ft | 435 kts | 21° |
| 2026-04-26 19:23 | -29.12005 | -50.21823 | 31498 ft | 432 kts | 21° |
| 2026-04-26 19:23 | -29.09596 | -50.19767 | 31113 ft | 429 kts | 21° |
| 2026-04-26 19:24 | -29.07205 | -50.17729 | 30735 ft | 427 kts | 21° |
| 2026-04-26 19:24 | -29.04856 | -50.15730 | 30372 ft | 424 kts | 21° |
| 2026-04-26 19:24 | -29.00129 | -50.11713 | 29547 ft | 421 kts | 21° |
| 2026-04-26 19:25 | -28.97772 | -50.09712 | 29096 ft | 419 kts | 22° |
| 2026-04-26 19:25 | -28.96231 | -50.08402 | 28874 ft | 416 kts | 22° |
| 2026-04-26 19:25 | -28.93143 | -50.05779 | 28333 ft | 412 kts | 22° |
| 2026-04-26 19:25 | -28.90847 | -50.03831 | 27945 ft | 409 kts | 22° |
| 2026-04-26 19:26 | -28.88602 | -50.01928 | 27567 ft | 405 kts | 22° |
| 2026-04-26 19:26 | -28.86345 | -50.00017 | 27189 ft | 402 kts | 22° |
| 2026-04-26 19:26 | -28.84102 | -49.98118 | 26815 ft | 400 kts | 22° |
| 2026-04-26 19:26 | -28.81871 | -49.96231 | 26442 ft | 397 kts | 22° |
| 2026-04-26 19:27 | -28.79655 | -49.94363 | 26046 ft | 394 kts | 23° |
| 2026-04-26 19:27 | -28.77466 | -49.92515 | 25692 ft | 391 kts | 23° |
| 2026-04-26 19:27 | -28.75282 | -49.90663 | 25282 ft | 388 kts | 23° |
| 2026-04-26 19:27 | -28.73158 | -49.88864 | 25003 ft | 383 kts | 23° |
| 2026-04-26 19:28 | -28.71004 | -49.87051 | 24573 ft | 385 kts | 24° |
| 2026-04-26 19:28 | -28.68852 | -49.85245 | 24247 ft | 383 kts | 24° |
| 2026-04-26 19:28 | -28.66738 | -49.83450 | 24050 ft | 376 kts | 22° |
| 2026-04-26 19:28 | -28.64647 | -49.81675 | 23725 ft | 374 kts | 24° |
| 2026-04-26 19:29 | -28.62565 | -49.79910 | 23361 ft | 371 kts | 25° |
| 2026-04-26 19:29 | -28.60506 | -49.78165 | 23004 ft | 368 kts | 24° |
| 2026-04-26 19:29 | -28.58450 | -49.76429 | 22595 ft | 367 kts | 24° |
| 2026-04-26 19:29 | -28.56400 | -49.74698 | 22244 ft | 366 kts | 25° |
| 2026-04-26 19:30 | -28.54356 | -49.72972 | 21879 ft | 366 kts | 25° |
| 2026-04-26 19:30 | -28.52316 | -49.71250 | 21503 ft | 365 kts | 25° |
| 2026-04-26 19:30 | -28.50274 | -49.69526 | 21145 ft | 364 kts | 25° |
| 2026-04-26 19:30 | -28.48929 | -49.68391 | 20907 ft | 363 kts | 25° |
| 2026-04-26 19:31 | -28.46277 | -49.66039 | 20435 ft | 368 kts | 31° |
| 2026-04-26 19:31 | -28.44411 | -49.64026 | 20118 ft | 370 kts | 35° |
| 2026-04-26 19:31 | -28.42607 | -49.61943 | 19772 ft | 369 kts | 36° |
| 2026-04-26 19:31 | -28.40816 | -49.59850 | 19419 ft | 369 kts | 36° |
| 2026-04-26 19:32 | -28.39018 | -49.57767 | 19045 ft | 369 kts | 36° |
| 2026-04-26 19:32 | -28.37214 | -49.55700 | 18677 ft | 368 kts | 36° |
| 2026-04-26 19:32 | -28.35419 | -49.53652 | 18284 ft | 362 kts | 36° |
| 2026-04-26 19:32 | -28.33647 | -49.51650 | 17905 ft | 358 kts | 37° |
| 2026-04-26 19:33 | -28.31906 | -49.49696 | 17571 ft | 356 kts | 36° |
| 2026-04-26 19:33 | -28.30139 | -49.47720 | 17235 ft | 357 kts | 37° |
| 2026-04-26 19:33 | -28.28361 | -49.45732 | 16806 ft | 359 kts | 37° |
| 2026-04-26 19:33 | -28.26583 | -49.43745 | 16465 ft | 358 kts | 37° |
| 2026-04-26 19:34 | -28.24815 | -49.41767 | 16117 ft | 356 kts | 37° |
| 2026-04-26 19:34 | -28.23048 | -49.39790 | 15764 ft | 355 kts | 37° |
| 2026-04-26 19:34 | -28.21293 | -49.37827 | 15416 ft | 354 kts | 38° |
| 2026-04-26 19:34 | -28.19542 | -49.35871 | 15062 ft | 353 kts | 38° |
| 2026-04-26 19:35 | -28.17793 | -49.33917 | 14709 ft | 352 kts | 38° |
| 2026-04-26 19:35 | -28.16051 | -49.31972 | 14357 ft | 351 kts | 38° |
| 2026-04-26 19:35 | -28.14312 | -49.30032 | 13996 ft | 350 kts | 38° |
| 2026-04-26 19:35 | -28.12600 | -49.28123 | 13658 ft | 349 kts | 38° |
| 2026-04-26 19:36 | -28.10872 | -49.26197 | 13268 ft | 348 kts | 39° |
| 2026-04-26 19:36 | -28.10291 | -49.25550 | 13151 ft | 347 kts | 39° |
| 2026-04-26 19:36 | -28.07446 | -49.22379 | 12577 ft | 343 kts | 39° |
| 2026-04-26 19:36 | -28.05745 | -49.20485 | 12231 ft | 341 kts | 39° |
| 2026-04-26 19:37 | -28.04059 | -49.18607 | 11899 ft | 339 kts | 39° |
| 2026-04-26 19:37 | -28.02378 | -49.16734 | 11552 ft | 337 kts | 39° |
| 2026-04-26 19:37 | -28.00708 | -49.14876 | 11218 ft | 336 kts | 39° |
| 2026-04-26 19:37 | -27.99046 | -49.13029 | 10876 ft | 334 kts | 40° |
| 2026-04-26 19:38 | -27.97393 | -49.11191 | 10548 ft | 332 kts | 40° |
| 2026-04-26 19:38 | -27.95771 | -49.09389 | 10230 ft | 330 kts | 40° |
| 2026-04-26 19:38 | -27.94148 | -49.07597 | 10048 ft | 321 kts | 39° |
| 2026-04-26 19:38 | -27.92573 | -49.05852 | 9892 ft | 314 kts | 40° |
| 2026-04-26 19:39 | -27.91016 | -49.04120 | 9559 ft | 314 kts | 40° |
| 2026-04-26 19:39 | -27.89467 | -49.02399 | 9342 ft | 309 kts | 40° |
| 2026-04-26 19:39 | -27.87938 | -49.00701 | 9055 ft | 307 kts | 40° |
| 2026-04-26 19:39 | -27.86419 | -48.99017 | 8775 ft | 305 kts | 40° |
| 2026-04-26 19:40 | -27.84912 | -48.97347 | 8489 ft | 303 kts | 41° |
| 2026-04-26 19:40 | -27.83415 | -48.95691 | 8200 ft | 300 kts | 41° |
| 2026-04-26 19:40 | -27.81926 | -48.94045 | 7946 ft | 296 kts | 41° |
| 2026-04-26 19:40 | -27.80466 | -48.92434 | 7743 ft | 291 kts | 41° |
| 2026-04-26 19:41 | -27.79037 | -48.90859 | 7543 ft | 284 kts | 41° |
| 2026-04-26 19:41 | -27.77629 | -48.89308 | 7366 ft | 281 kts | 41° |
| 2026-04-26 19:41 | -27.76227 | -48.87766 | 7170 ft | 282 kts | 41° |
| 2026-04-26 19:41 | -27.75769 | -48.87262 | 7103 ft | 283 kts | 41° |
| 2026-04-26 19:42 | -27.73412 | -48.84667 | 6799 ft | 287 kts | 41° |
| 2026-04-26 19:42 | -27.71981 | -48.83092 | 6600 ft | 286 kts | 42° |
| 2026-04-26 19:42 | -27.70562 | -48.81531 | 6410 ft | 285 kts | 42° |
| 2026-04-26 19:42 | -27.69141 | -48.79972 | 6213 ft | 285 kts | 42° |
| 2026-04-26 19:43 | -27.67712 | -48.78402 | 6010 ft | 287 kts | 42° |
| 2026-04-26 19:43 | -27.66099 | -48.77164 | 5772 ft | 276 kts | 15° |
| 2026-04-26 19:43 | -27.64259 | -48.76763 | 5409 ft | 268 kts | 5° |
| 2026-04-26 19:43 | -27.62422 | -48.76434 | 4964 ft | 267 kts | 8° |
| 2026-04-26 19:44 | -27.60622 | -48.75938 | 4514 ft | 267 kts | 15° |
| 2026-04-26 19:44 | -27.59031 | -48.74875 | 4016 ft | 271 kts | 47° |
| 2026-04-26 19:44 | -27.58218 | -48.72983 | 3532 ft | 272 kts | 83° |
| 2026-04-26 19:44 | -27.58441 | -48.70927 | 3120 ft | 268 kts | 110° |
| 2026-04-26 19:45 | -27.59171 | -48.69026 | 2751 ft | 258 kts | 117° |
| 2026-04-26 19:45 | -27.60011 | -48.67331 | 2437 ft | 238 kts | 122° |
| 2026-04-26 19:45 | -27.60844 | -48.65801 | 2128 ft | 220 kts | 122° |
| 2026-04-26 19:45 | -27.61611 | -48.64382 | 1845 ft | 204 kts | 121° |
| 2026-04-26 19:46 | -27.62317 | -48.63065 | 1594 ft | 189 kts | 120° |
| 2026-04-26 19:46 | -27.62964 | -48.61854 | 1377 ft | 172 kts | 120° |
| 2026-04-26 19:46 | -27.63556 | -48.60749 | 1146 ft | 155 kts | 120° |
| 2026-04-26 19:46 | -27.64090 | -48.59753 | 951 ft | 145 kts | 120° |
| 2026-04-26 19:47 | -27.64606 | -48.58789 | 773 ft | 143 kts | 120° |
| 2026-04-26 19:47 | -27.64773 | -48.58478 | 714 ft | 143 kts | 120° |
| 2026-04-26 19:47 | -27.65634 | -48.56860 | 412 ft | 143 kts | 117° |
| 2026-04-26 19:47 | -27.66126 | -48.55878 | 280 ft | 145 kts | 120° |
| 2026-04-26 19:48 | -27.66670 | -48.54927 | 118 ft | 138 kts | 118° |
| 2026-04-26 19:48 | -27.66988 | -48.54337 | 31 ft | 127 kts | 120° |
| 2026-04-26 19:48 | -27.67347 | -48.53677 | 21 ft | 67 kts | 121° |
| 2026-04-26 19:48 | -27.67521 | -48.53408 | 22 ft | 28 kts | 153° |
| 2026-04-26 19:49 | -27.67628 | -48.53357 | 22 ft | 7 kts | 161° |
| 2026-04-26 19:49 | -27.67688 | -48.53381 | 22 ft | 12 kts | 249° |
| 2026-04-26 19:49 | -27.67656 | -48.53472 | 24 ft | 13 kts | 301° |
| 2026-04-26 19:49 | -27.67623 | -48.53529 | 23 ft | 13 kts | 303° |
| 2026-04-26 19:50 | -27.67576 | -48.53610 | 22 ft | 12 kts | 303° |
| 2026-04-26 19:50 | -27.67531 | -48.53692 | 25 ft | 12 kts | 301° |
| 2026-04-26 19:50 | -27.67488 | -48.53772 | 25 ft | 12 kts | 298° |
| 2026-04-26 19:50 | -27.67446 | -48.53850 | 23 ft | 11 kts | 302° |
| 2026-04-26 19:51 | -27.67405 | -48.53925 | 23 ft | 11 kts | 302° |
| 2026-04-26 19:51 | -27.67364 | -48.54000 | 25 ft | 12 kts | 301° |
| 2026-04-26 19:51 | -27.67319 | -48.54086 | 24 ft | 14 kts | 301° |
| 2026-04-26 19:51 | -27.67264 | -48.54187 | 24 ft | 16 kts | 302° |
| 2026-04-26 19:52 | -27.67217 | -48.54296 | 25 ft | 8 kts | 273° |
| 2026-04-26 19:52 | -27.67240 | -48.54346 | 25 ft | 7 kts | 230° |
| 2026-04-26 19:52 | -27.67281 | -48.54380 | 25 ft | 9 kts | 217° |
| 2026-04-26 19:52 | -27.67330 | -48.54431 | 23 ft | 7 kts | 212° |
| 2026-04-26 19:53 | -27.67337 | -48.54436 | 23 ft | 0 kts | 215° |